Time;durP1;ratioP1;P1;durP2;ratioP2;P2;SDS_P1;SDS_P2;PMS_P1;PMS_P2;Temp;Humidity;BMP_temperature;BMP_pressure;BME280_temperature;BME280_humidity;BME280_pressure;Samples;Min_cycle;Max_cycle;Signal;HPM_P1;HPM_P2
2023/01/16 00:00:58;;;;;;;;;;;;;;;;;;5033362;28;1935;-76
2023/01/16 00:03:23;;;;;;;;;;;;;;;;;;5033312;28;833;-76
2023/01/16 00:05:49;;;;;;;;;;;;;;;;;;5032345;28;1337;-76
2023/01/16 00:08:14;;;;;;;;;;;;;;;;;;5033235;28;837;-76
2023/01/16 00:10:39;;;;;;;;;;;;;;;;;;5031612;28;1299;-76
2023/01/16 00:13:05;;;;;;;;;;;;;;;;;;5033160;28;908;-76
2023/01/16 00:15:33;;;;;;;;;;;;;;;;;;5032667;28;612;-75
2023/01/16 00:17:59;;;;;;;;;;;;;;;;;;5031877;28;1378;-75
2023/01/16 00:20:24;;;;;;;;;;;;;;;;;;5014627;28;1210;-76
2023/01/16 00:22:49;;;;;;;;;;;;;;;;;;5033009;28;1961;-75
2023/01/16 00:25:15;;;;;;;;;;;;;;;;;;5031593;28;1274;-76
2023/01/16 00:27:42;;;;;;;;;;;;;;;;;;5031142;28;1253;-75
2023/01/16 00:30:08;;;;;;;;;;;;;;;;;;5015140;28;1236;-75
2023/01/16 00:32:33;;;;;;;;;;;;;;;;;;5032840;28;746;-75
2023/01/16 00:34:59;;;;;;;;;;;;;;;;;;5030943;28;1113;-76
2023/01/16 00:37:24;;;;;;;;;;;;;;;;;;5030905;28;1314;-76
2023/01/16 00:39:51;;;;;;;;;;;;;;;;;;5032480;28;904;-76
2023/01/16 00:42:16;;;;;;;;;;;;;;;;;;5032379;28;1894;-75
2023/01/16 00:44:42;;;;;;;;;;;;;;;;;;5032257;28;880;-75
2023/01/16 00:47:07;;;;;;;;;;;;;;;;;;5030927;28;924;-75
2023/01/16 00:49:32;;;;;;;;;;;;;;;;;;5031980;28;865;-75
2023/01/16 00:51:58;;;;;;;;;;;;;;;;;;5030686;28;1129;-75
2023/01/16 00:54:23;;;;;;;;;;;;;;;;;;5030684;28;1275;-75
2023/01/16 00:56:48;;;;;;;;;;;;;;;;;;5032172;28;887;-76
2023/01/16 00:59:13;;;;;;;;;;;;;;;;;;5030625;28;1315;-76
2023/01/16 01:01:39;;;;;;;;;;;;;;;;;;5030367;28;1910;-76
2023/01/16 01:04:04;;;;;;;;;;;;;;;;;;5030821;28;1239;-76
2023/01/16 01:06:30;;;;;;;;;;;;;;;;;;5031841;28;888;-76
2023/01/16 01:08:56;;;;;;;;;;;;;;;;;;5030302;28;1236;-76
2023/01/16 01:11:22;;;;;;;;;;;;;;;;;;5014196;28;1299;-76
2023/01/16 01:13:48;;;;;;;;;;;;;;;;;;5031152;28;1338;-69
2023/01/16 01:16:13;;;;;;;;;;;;;;;;;;5030241;28;1288;-69
2023/01/16 01:18:39;;;;;;;;;;;;;;;;;;5031458;28;841;-69
2023/01/16 01:21:05;;;;;;;;;;;;;;;;;;5031544;28;1890;-69
2023/01/16 01:23:30;;;;;;;;;;;;;;;;;;5030329;28;1461;-69
2023/01/16 01:25:55;;;;;;;;;;;;;;;;;;5013863;28;1235;-68
2023/01/16 01:28:21;;;;;;;;;;;;;;;;;;5031113;28;865;-69
2023/01/16 01:30:46;;;;;;;;;;;;;;;;;;5013954;28;1430;-68
2023/01/16 01:33:12;;;;;;;;;;;;;;;;;;5030373;28;901;-69
2023/01/16 01:35:38;;;;;;;;;;;;;;;;;;5030287;28;1164;-69
2023/01/16 01:38:03;;;;;;;;;;;;;;;;;;5030521;28;1223;-69
2023/01/16 01:40:28;;;;;;;;;;;;;;;;;;5030441;28;1093;-69
2023/01/16 01:42:54;;;;;;;;;;;;;;;;;;5030121;28;1899;-69
2023/01/16 01:45:19;;;;;;;;;;;;;;;;;;5030334;28;1472;-69
2023/01/16 01:47:49;;;;;;;;;;;;;;;;;;5029969;28;1097;-69
2023/01/16 01:50:20;;;;;;;;;;;;;;;;;;5031796;28;853;-69
2023/01/16 01:52:45;;;;;;;;;;;;;;;;;;5031262;28;999;-69
2023/01/16 01:55:12;;;;;;;;;;;;;;;;;;5030163;28;889;-69
2023/01/16 01:57:39;;;;;;;;;;;;;;;;;;5029752;28;1258;-68
2023/01/16 02:00:08;;;;;;;;;;;;;;;;;;5031664;28;1299;-76
2023/01/16 02:02:36;;;;;;;;;;;;;;;;;;5031645;28;1899;-76
2023/01/16 02:05:03;;;;;;;;;;;;;;;;;;5031400;28;900;-76
2023/01/16 02:07:29;;;;;;;;;;;;;;;;;;5029935;28;1206;-76
2023/01/16 02:10:05;;;;;;;;;;;;;;;;;;5030219;28;1220;-76
2023/01/16 02:12:31;;;;;;;;;;;;;;;;;;5029690;28;1203;-76
2023/01/16 02:14:57;;;;;;;;;;;;;;;;;;5030204;28;1180;-76
2023/01/16 02:20:18;;;;;;;;;;;;;;;;;;5030537;28;883;-76
2023/01/16 02:22:43;;;;;;;;;;;;;;;;;;5029887;28;1898;-76
2023/01/16 02:25:25;;;;;;;;;;;;;;;;;;5031453;28;900;-76
2023/01/16 02:28:09;;;;;;;;;;;;;;;;;;5030037;28;1196;-75
2023/01/16 02:30:53;;;;;;;;;;;;;;;;;;5031449;28;1056;-75
2023/01/16 02:33:36;;;;;;;;;;;;;;;;;;5031393;28;815;-74
2023/01/16 02:36:16;;;;;;;;;;;;;;;;;;5030283;28;1221;-75
2023/01/16 02:38:55;;;;;;;;;;;;;;;;;;5027182;28;1839;-75
2023/01/16 02:41:41;;;;;;;;;;;;;;;;;;5032589;28;1898;-77
2023/01/16 02:44:06;;;;;;;;;;;;;;;;;;5034390;28;861;-77
2023/01/16 02:46:38;;;;;;;;;;;;;;;;;;5034466;28;998;-77
2023/01/16 02:49:18;;;;;;;;;;;;;;;;;;5033076;28;1132;-75
2023/01/16 02:51:58;;;;;;;;;;;;;;;;;;5034217;28;1010;-77
2023/01/16 02:54:27;;;;;;;;;;;;;;;;;;5034445;28;857;-77
2023/01/16 02:56:57;;;;;;;;;;;;;;;;;;5032906;28;1180;-77
2023/01/16 02:59:23;;;;;;;;;;;;;;;;;;5032960;28;1433;-69
2023/01/16 03:01:49;;;;;;;;;;;;;;;;;;5032700;28;1929;-70
2023/01/16 03:04:33;;;;;;;;;;;;;;;;;;5032858;28;892;-69
2023/01/16 03:07:15;;;;;;;;;;;;;;;;;;5034117;28;1043;-70
2023/01/16 03:10:01;;;;;;;;;;;;;;;;;;5033995;28;765;-70
2023/01/16 03:12:29;;;;;;;;;;;;;;;;;;5032428;28;1215;-70
2023/01/16 03:15:03;;;;;;;;;;;;;;;;;;5031920;28;911;-69
2023/01/16 03:17:40;;;;;;;;;;;;;;;;;;5032618;28;1409;-70
2023/01/16 03:20:14;;;;;;;;;;;;;;;;;;5034105;28;1028;-69
2023/01/16 03:22:47;;;;;;;;;;;;;;;;;;5033580;28;1906;-70
2023/01/16 03:25:19;;;;;;;;;;;;;;;;;;5033886;28;929;-69
2023/01/16 03:27:55;;;;;;;;;;;;;;;;;;5031897;28;1438;-69
2023/01/16 03:30:20;;;;;;;;;;;;;;;;;;5033840;28;892;-70
2023/01/16 03:32:52;;;;;;;;;;;;;;;;;;5033716;28;880;-70
2023/01/16 03:35:21;;;;;;;;;;;;;;;;;;5033781;28;975;-69
2023/01/16 03:37:50;;;;;;;;;;;;;;;;;;5033912;28;813;-70
2023/01/16 03:40:18;;;;;;;;;;;;;;;;;;5034209;28;876;-70
2023/01/16 03:42:46;;;;;;;;;;;;;;;;;;5033664;28;1963;-70
2023/01/16 03:45:16;;;;;;;;;;;;;;;;;;5032392;28;1185;-70
2023/01/16 03:47:47;;;;;;;;;;;;;;;;;;5032187;28;1183;-70
2023/01/16 03:50:13;;;;;;;;;;;;;;;;;;5032020;28;1330;-70
2023/01/16 03:52:45;;;;;;;;;;;;;;;;;;5033692;28;884;-70
2023/01/16 03:55:29;;;;;;;;;;;;;;;;;;5032576;28;1207;-70
2023/01/16 03:57:58;;;;;;;;;;;;;;;;;;5031923;28;1575;-70
2023/01/16 04:00:25;;;;;;;;;;;;;;;;;;5030380;28;1227;-69
2023/01/16 04:03:04;;;;;;;;;;;;;;;;;;5029085;28;1887;-70
2023/01/16 04:05:31;;;;;;;;;;;;;;;;;;5031103;28;1161;-70
2023/01/16 04:08:12;;;;;;;;;;;;;;;;;;5029336;28;1356;-69
2023/01/16 04:10:40;;;;;;;;;;;;;;;;;;5030684;28;1291;-70
2023/01/16 04:13:08;;;;;;;;;;;;;;;;;;5032804;28;936;-70
2023/01/16 04:15:34;;;;;;;;;;;;;;;;;;5031603;28;1195;-69
2023/01/16 04:18:00;;;;;;;;;;;;;;;;;;5031344;28;1283;-69
2023/01/16 04:20:27;;;;;;;;;;;;;;;;;;5033051;28;1029;-70
2023/01/16 04:22:52;;;;;;;;;;;;;;;;;;5031399;28;1898;-69
2023/01/16 04:25:18;;;;;;;;;;;;;;;;;;5031489;28;1398;-69
2023/01/16 04:27:44;;;;;;;;;;;;;;;;;;5031448;28;1315;-69
2023/01/16 04:30:09;;;;;;;;;;;;;;;;;;5031353;28;1450;-69
2023/01/16 04:32:35;;;;;;;;;;;;;;;;;;5032389;28;1137;-70
2023/01/16 04:35:00;;;;;;;;;;;;;;;;;;5031251;28;1374;-70
2023/01/16 04:37:25;;;;;;;;;;;;;;;;;;5032661;28;896;-70
2023/01/16 04:39:50;;;;;;;;;;;;;;;;;;5014558;28;1160;-70
2023/01/16 04:42:16;;;;;;;;;;;;;;;;;;5031102;28;1902;-69
2023/01/16 04:44:42;;;;;;;;;;;;;;;;;;5014762;28;1335;-70
2023/01/16 04:47:07;;;;;;;;;;;;;;;;;;5031281;28;1339;-69
2023/01/16 04:49:32;;;;;;;;;;;;;;;;;;5014776;28;1537;-69
2023/01/16 04:51:58;;;;;;;;;;;;;;;;;;5030892;28;852;-69
2023/01/16 04:54:23;;;;;;;;;;;;;;;;;;5014549;28;1339;-76
2023/01/16 04:56:48;;;;;;;;;;;;;;;;;;5032147;28;1050;-76
2023/01/16 04:59:15;;;;;;;;;;;;;;;;;;5031077;28;766;-76
2023/01/16 05:01:40;;;;;;;;;;;;;;;;;;5032664;28;1903;-77
2023/01/16 05:04:08;;;;;;;;;;;;;;;;;;5014504;28;1187;-76
2023/01/16 05:06:34;;;;;;;;;;;;;;;;;;5031059;28;1272;-76
2023/01/16 05:08:59;;;;;;;;;;;;;;;;;;5014018;28;1258;-76
2023/01/16 05:11:25;;;;;;;;;;;;;;;;;;5032118;28;841;-76
2023/01/16 05:13:50;;;;;;;;;;;;;;;;;;5031028;28;893;-76
2023/01/16 05:16:15;;;;;;;;;;;;;;;;;;5030743;28;841;-76
2023/01/16 05:18:40;;;;;;;;;;;;;;;;;;5033630;28;955;-76
2023/01/16 05:21:06;;;;;;;;;;;;;;;;;;5035509;28;1945;-76
2023/01/16 05:23:35;;;;;;;;;;;;;;;;;;5035727;28;996;-76
2023/01/16 05:26:01;;;;;;;;;;;;;;;;;;5034193;28;1216;-76
2023/01/16 05:28:27;;;;;;;;;;;;;;;;;;5036231;28;873;-77
2023/01/16 05:30:52;;;;;;;;;;;;;;;;;;5036310;28;989;-76
2023/01/16 05:33:17;;;;;;;;;;;;;;;;;;5035000;28;1369;-76
2023/01/16 05:35:44;;;;;;;;;;;;;;;;;;5033712;28;1136;-76
2023/01/16 05:38:09;;;;;;;;;;;;;;;;;;5034304;28;849;-76
2023/01/16 05:40:34;;;;;;;;;;;;;;;;;;5033353;28;1016;-76
2023/01/16 05:43:00;;;;;;;;;;;;;;;;;;5032651;28;1965;-76
2023/01/16 05:45:25;;;;;;;;;;;;;;;;;;5032862;28;1359;-76
2023/01/16 05:47:50;;;;;;;;;;;;;;;;;;5033703;28;1317;-76
2023/01/16 05:50:16;;;;;;;;;;;;;;;;;;5035556;28;947;-76
2023/01/16 05:52:41;;;;;;;;;;;;;;;;;;5032321;28;1161;-76
2023/01/16 05:55:06;;;;;;;;;;;;;;;;;;5031642;28;1339;-75
2023/01/16 05:57:32;;;;;;;;;;;;;;;;;;5013861;28;1466;-75
2023/01/16 05:59:57;;;;;;;;;;;;;;;;;;5031690;28;1201;-75
2023/01/16 06:02:22;;;;;;;;;;;;;;;;;;5033048;28;1914;-75
2023/01/16 06:04:47;;;;;;;;;;;;;;;;;;5030780;28;1133;-75
2023/01/16 06:07:13;;;;;;;;;;;;;;;;;;5032590;28;901;-75
2023/01/16 06:09:38;;;;;;;;;;;;;;;;;;5034850;28;1192;-75
2023/01/16 06:12:04;;;;;;;;;;;;;;;;;;5017029;28;1224;-75
2023/01/16 06:14:29;;;;;;;;;;;;;;;;;;5036801;28;1000;-75
2023/01/16 06:16:55;;;;;;;;;;;;;;;;;;5038439;28;927;-75
2023/01/16 06:19:20;;;;;;;;;;;;;;;;;;5038513;28;916;-75
2023/01/16 06:21:45;;;;;;;;;;;;;;;;;;5042443;28;1870;-75
2023/01/16 06:24:11;;;;;;;;;;;;;;;;;;5042672;28;1007;-76
2023/01/16 06:26:36;;;;;;;;;;;;;;;;;;5039800;28;841;-76
2023/01/16 06:29:01;;;;;;;;;;;;;;;;;;5041672;28;1073;-74
2023/01/16 06:31:27;;;;;;;;;;;;;;;;;;5040843;28;951;-74
2023/01/16 06:33:53;;;;;;;;;;;;;;;;;;5038971;28;912;-76
2023/01/16 06:36:18;;;;;;;;;;;;;;;;;;5037927;28;1170;-75
2023/01/16 06:38:43;;;;;;;;;;;;;;;;;;5038168;28;950;-74
2023/01/16 06:41:09;;;;;;;;;;;;;;;;;;5019682;28;1977;-74
2023/01/16 06:43:35;;;;;;;;;;;;;;;;;;5017626;28;1022;-74
2023/01/16 06:46:00;;;;;;;;;;;;;;;;;;5033293;28;932;-74
2023/01/16 06:48:25;;;;;;;;;;;;;;;;;;5033545;28;1165;-73
2023/01/16 06:50:52;;;;;;;;;;;;;;;;;;5017347;28;1173;-73
2023/01/16 06:53:17;;;;;;;;;;;;;;;;;;5034901;28;907;-74
2023/01/16 06:55:42;;;;;;;;;;;;;;;;;;5034915;28;899;-74
2023/01/16 06:58:08;;;;;;;;;;;;;;;;;;5033515;28;841;-74
2023/01/16 07:00:34;;;;;;;;;;;;;;;;;;5034479;28;1051;-74
2023/01/16 07:03:00;;;;;;;;;;;;;;;;;;5033150;28;1961;-75
2023/01/16 07:05:26;;;;;;;;;;;;;;;;;;5035097;28;1081;-70
2023/01/16 07:07:54;;;;;;;;;;;;;;;;;;5033203;28;1153;-69
2023/01/16 07:10:20;;;;;;;;;;;;;;;;;;5032520;28;1357;-70
2023/01/16 07:12:49;;;;;;;;;;;;;;;;;;5033221;28;1295;-70
2023/01/16 07:23:34;;;;;;;;;;;;;;;;;;5034897;28;687;-70
2023/01/16 07:26:01;;;;;;;;;;;;;;;;;;5032352;28;968;-70
2023/01/16 07:28:27;;;;;;;;;;;;;;;;;;5032699;28;1446;-70
2023/01/16 07:30:54;;;;;;;;;;;;;;;;;;5033283;28;853;-70
2023/01/16 07:33:19;;;;;;;;;;;;;;;;;;5032054;28;1208;-70
2023/01/16 07:35:45;;;;;;;;;;;;;;;;;;5033596;28;829;-70
2023/01/16 07:38:10;;;;;;;;;;;;;;;;;;5015493;28;1342;-70
2023/01/16 07:40:36;;;;;;;;;;;;;;;;;;5033265;28;1200;-70
2023/01/16 07:43:01;;;;;;;;;;;;;;;;;;5031256;28;1910;-67
2023/01/16 07:45:26;;;;;;;;;;;;;;;;;;5014749;28;1115;-67
2023/01/16 07:47:51;;;;;;;;;;;;;;;;;;5032236;28;940;-67
2023/01/16 07:50:17;;;;;;;;;;;;;;;;;;5015141;28;1224;-67
2023/01/16 07:52:43;;;;;;;;;;;;;;;;;;5015457;28;1089;-67
2023/01/16 07:55:08;;;;;;;;;;;;;;;;;;5032895;28;908;-67
2023/01/16 07:57:37;;;;;;;;;;;;;;;;;;5032038;28;841;-66
2023/01/16 08:00:03;;;;;;;;;;;;;;;;;;5032787;28;1086;-67
2023/01/16 08:02:28;;;;;;;;;;;;;;;;;;5031196;28;1914;-67
2023/01/16 08:04:53;;;;;;;;;;;;;;;;;;5031598;28;829;-66
2023/01/16 08:07:19;;;;;;;;;;;;;;;;;;5031567;28;1204;-67
2023/01/16 08:09:44;;;;;;;;;;;;;;;;;;5033072;28;884;-66
2023/01/16 08:12:10;;;;;;;;;;;;;;;;;;5032634;28;1036;-67
2023/01/16 08:14:35;;;;;;;;;;;;;;;;;;5031778;28;1153;-67
2023/01/16 08:17:01;;;;;;;;;;;;;;;;;;5033306;28;861;-66
2023/01/16 08:19:26;;;;;;;;;;;;;;;;;;5032679;28;1002;-67
2023/01/16 08:21:51;;;;;;;;;;;;;;;;;;5031698;28;1926;-67
2023/01/16 08:24:18;;;;;;;;;;;;;;;;;;5014907;28;1204;-67
2023/01/16 08:26:43;;;;;;;;;;;;;;;;;;5015025;28;1264;-67
2023/01/16 08:29:09;;;;;;;;;;;;;;;;;;5014047;28;1259;-67
2023/01/16 08:31:34;;;;;;;;;;;;;;;;;;5032646;28;817;-67
2023/01/16 08:33:59;;;;;;;;;;;;;;;;;;5015041;28;1210;-67
2023/01/16 08:36:25;;;;;;;;;;;;;;;;;;5032646;28;991;-67
2023/01/16 08:38:51;;;;;;;;;;;;;;;;;;5031602;28;837;-67
2023/01/16 08:52:19;;;;;;;;;;;;;;;;;;5031205;28;676;-67
2023/01/16 08:54:44;;;;;;;;;;;;;;;;;;5014577;28;1106;-67
2023/01/16 08:57:10;;;;;;;;;;;;;;;;;;5014116;28;1389;-67
2023/01/16 08:59:35;;;;;;;;;;;;;;;;;;5031261;28;813;-67
2023/01/16 09:02:01;;;;;;;;;;;;;;;;;;5031752;28;1906;-67
2023/01/16 09:04:27;;;;;;;;;;;;;;;;;;5030916;28;1203;-67
2023/01/16 09:06:53;;;;;;;;;;;;;;;;;;5032321;28;833;-67
2023/01/16 09:09:19;;;;;;;;;;;;;;;;;;5031162;28;1430;-66
2023/01/16 09:14:28;;;;;;;;;;;;;;;;;;5032115;28;1041;-69
2023/01/16 09:16:53;;;;;;;;;;;;;;;;;;5030539;28;1200;-69
2023/01/16 09:19:19;;;;;;;;;;;;;;;;;;5013672;28;1323;-69
2023/01/16 09:21:44;;;;;;;;;;;;;;;;;;5013962;28;1919;-69
2023/01/16 09:24:09;;;;;;;;;;;;;;;;;;5014387;28;1183;-66
2023/01/16 09:26:35;;;;;;;;;;;;;;;;;;5030553;28;975;-66
2023/01/16 09:29:00;;;;;;;;;;;;;;;;;;5031133;28;795;-66
2023/01/16 09:31:26;;;;;;;;;;;;;;;;;;5014076;28;1354;-65
2023/01/16 09:33:54;;;;;;;;;;;;;;;;;;5030300;28;1116;-66
2023/01/16 09:36:19;;;;;;;;;;;;;;;;;;5030174;28;1117;-66
2023/01/16 09:38:44;;;;;;;;;;;;;;;;;;5013808;28;1293;-67
2023/01/16 09:43:35;;;;;;;;;;;;;;;;;;5030423;28;1958;-66
2023/01/16 09:43:59;;;;;;;;;;;;;;;;;;5031697;28;860;-66
2023/01/16 09:46:27;;;;;;;;;;;;;;;;;;5029689;28;1204;-66
2023/01/16 09:49:01;;;;;;;;;;;;;;;;;;5033749;28;1204;-67
2023/01/16 09:51:33;;;;;;;;;;;;;;;;;;5036304;28;1306;-67
2023/01/16 09:59:30;;;;;;;;;;;;;;;;;;5038839;28;624;-67
2023/01/16 10:02:02;;;;;;;;;;;;;;;;;;5038102;28;1907;-67
2023/01/16 10:04:29;;;;;;;;;;;;;;;;;;5037876;28;971;-67
2023/01/16 10:07:13;;;;;;;;;;;;;;;;;;5038510;28;987;-67
2023/01/16 10:09:50;;;;;;;;;;;;;;;;;;5036630;28;1302;-68
2023/01/16 10:12:16;;;;;;;;;;;;;;;;;;5038158;28;911;-68
2023/01/16 10:14:52;;;;;;;;;;;;;;;;;;5038131;28;920;-68
2023/01/16 10:17:25;;;;;;;;;;;;;;;;;;5036950;28;1204;-68
2023/01/16 10:20:06;;;;;;;;;;;;;;;;;;5036890;28;1177;-69
2023/01/16 10:22:34;;;;;;;;;;;;;;;;;;5037885;28;1906;-69
2023/01/16 10:25:15;;;;;;;;;;;;;;;;;;5036726;28;1263;-69
2023/01/16 10:27:41;;;;;;;;;;;;;;;;;;5038086;28;833;-69
2023/01/16 10:30:13;;;;;;;;;;;;;;;;;;5037745;28;1027;-69
2023/01/16 10:32:42;;;;;;;;;;;;;;;;;;5036379;28;1398;-69
2023/01/16 10:35:22;;;;;;;;;;;;;;;;;;5038201;28;861;-69
2023/01/16 10:37:48;;;;;;;;;;;;;;;;;;5036960;28;1276;-70
2023/01/16 10:40:21;;;;;;;;;;;;;;;;;;5036052;28;846;-70
2023/01/16 10:51:10;;;;;;;;;;;;;;;;;;5037693;28;757;-70
2023/01/16 10:53:35;;;;;;;;;;;;;;;;;;5019061;28;1331;-70
2023/01/16 10:56:01;;;;;;;;;;;;;;;;;;5037586;28;920;-70
2023/01/16 10:58:30;;;;;;;;;;;;;;;;;;5035708;28;1217;-70
2023/01/16 11:01:04;;;;;;;;;;;;;;;;;;5033408;28;1157;-70
2023/01/16 11:03:39;;;;;;;;;;;;;;;;;;5034197;28;1985;-70
2023/01/16 11:06:05;;;;;;;;;;;;;;;;;;5032948;28;1335;-70
2023/01/16 11:08:32;;;;;;;;;;;;;;;;;;5032099;28;1212;-70
2023/01/16 11:10:57;;;;;;;;;;;;;;;;;;5034207;28;853;-70
2023/01/16 11:18:56;;;;;;;;;;;;;;;;;;5034273;28;1036;-70
2023/01/16 11:21:29;;;;;;;;;;;;;;;;;;5033919;28;1953;-71
2023/01/16 11:23:58;;;;;;;;;;;;;;;;;;5033947;28;1145;-70
2023/01/16 11:26:24;;;;;;;;;;;;;;;;;;5029443;28;1137;-70
2023/01/16 11:28:49;;;;;;;;;;;;;;;;;;5031288;28;1149;-69
2023/01/16 11:31:19;;;;;;;;;;;;;;;;;;5031567;28;1394;-69
2023/01/16 11:33:47;;;;;;;;;;;;;;;;;;5030862;28;1453;-69
2023/01/16 11:36:15;;;;;;;;;;;;;;;;;;5031160;28;1188;-69
2023/01/16 11:38:44;;;;;;;;;;;;;;;;;;5030544;28;1251;-68
2023/01/16 11:41:16;;;;;;;;;;;;;;;;;;5033803;28;853;-69
2023/01/16 11:46:29;;;;;;;;;;;;;;;;;;5033251;28;1231;-69
2023/01/16 11:48:57;;;;;;;;;;;;;;;;;;5032064;28;1149;-68
2023/01/16 11:51:26;;;;;;;;;;;;;;;;;;5033403;28;1196;-68
2023/01/16 11:53:53;;;;;;;;;;;;;;;;;;5034092;28;904;-69
2023/01/16 11:56:18;;;;;;;;;;;;;;;;;;5033485;28;1015;-69
2023/01/16 11:58:47;;;;;;;;;;;;;;;;;;5031914;28;1348;-69
2023/01/16 12:02:15;;;;;;;;;;;;;;;;;;5033538;28;1145;-69
2023/01/16 12:04:22;;;;;;;;;;;;;;;;;;5033439;28;1087;-68
2023/01/16 12:07:05;;;;;;;;;;;;;;;;;;5032379;28;1219;-69
2023/01/16 12:09:42;;;;;;;;;;;;;;;;;;5033377;28;888;-69
2023/01/16 12:15:02;;;;;;;;;;;;;;;;;;5033269;28;675;-68
2023/01/16 12:17:35;;;;;;;;;;;;;;;;;;5031686;28;1168;-68
2023/01/16 12:20:00;;;;;;;;;;;;;;;;;;5031934;28;1227;-68
2023/01/16 12:22:48;;;;;;;;;;;;;;;;;;5030123;28;1906;-68
2023/01/16 12:25:23;;;;;;;;;;;;;;;;;;5031778;28;1197;-68
2023/01/16 12:27:52;;;;;;;;;;;;;;;;;;5033001;28;952;-68
2023/01/16 12:30:25;;;;;;;;;;;;;;;;;;5033383;28;884;-70
2023/01/16 12:33:13;;;;;;;;;;;;;;;;;;5030991;28;1297;-70
2023/01/16 12:35:48;;;;;;;;;;;;;;;;;;5032177;28;884;-70
2023/01/16 12:38:16;;;;;;;;;;;;;;;;;;5031500;28;1285;-69
2023/01/16 12:40:42;;;;;;;;;;;;;;;;;;5032404;28;841;-69
2023/01/16 12:43:23;;;;;;;;;;;;;;;;;;5032351;28;1878;-69
2023/01/16 12:45:50;;;;;;;;;;;;;;;;;;5031109;28;1187;-70
2023/01/16 12:48:28;;;;;;;;;;;;;;;;;;5031344;28;1199;-69
2023/01/16 12:51:02;;;;;;;;;;;;;;;;;;5031212;28;1329;-69
2023/01/16 12:53:33;;;;;;;;;;;;;;;;;;5032430;28;860;-69
2023/01/16 12:56:20;;;;;;;;;;;;;;;;;;5031114;28;1093;-68
2023/01/16 12:58:47;;;;;;;;;;;;;;;;;;5032085;28;885;-68
2023/01/16 13:01:16;;;;;;;;;;;;;;;;;;5030898;28;1371;-68
2023/01/16 13:03:42;;;;;;;;;;;;;;;;;;5031076;28;1302;-68
2023/01/16 13:06:11;;;;;;;;;;;;;;;;;;5032669;28;821;-68
2023/01/16 13:08:41;;;;;;;;;;;;;;;;;;5031841;28;826;-68
2023/01/16 13:14:10;;;;;;;;;;;;;;;;;;5032105;28;608;-67
2023/01/16 13:17:00;;;;;;;;;;;;;;;;;;5030355;28;1334;-69
2023/01/16 13:19:27;;;;;;;;;;;;;;;;;;5032135;28;916;-69
2023/01/16 13:22:13;;;;;;;;;;;;;;;;;;5032208;28;1902;-69
2023/01/16 13:24:46;;;;;;;;;;;;;;;;;;5030074;28;1178;-69
2023/01/16 13:27:14;;;;;;;;;;;;;;;;;;5032121;28;939;-68
2023/01/16 13:29:46;;;;;;;;;;;;;;;;;;5031688;28;868;-68
2023/01/16 13:32:18;;;;;;;;;;;;;;;;;;5031022;28;1287;-70
2023/01/16 13:34:47;;;;;;;;;;;;;;;;;;5031853;28;908;-70
2023/01/16 13:37:28;;;;;;;;;;;;;;;;;;5031819;28;814;-71
2023/01/16 13:40:12;;;;;;;;;;;;;;;;;;5030638;28;1355;-71
2023/01/16 13:42:40;;;;;;;;;;;;;;;;;;5030373;28;1902;-70
2023/01/16 13:47:52;;;;;;;;;;;;;;;;;;5031615;28;791;-71
2023/01/16 13:50:24;;;;;;;;;;;;;;;;;;5030590;28;1145;-70
2023/01/16 13:52:50;;;;;;;;;;;;;;;;;;5030575;28;1420;-70
2023/01/16 13:55:26;;;;;;;;;;;;;;;;;;5014120;28;1350;-68
2023/01/16 13:57:53;;;;;;;;;;;;;;;;;;5031673;28;848;-69
2023/01/16 14:00:19;;;;;;;;;;;;;;;;;;5031837;28;1074;-69
2023/01/16 14:02:45;;;;;;;;;;;;;;;;;;5014047;28;1910;-70
2023/01/16 14:05:20;;;;;;;;;;;;;;;;;;5031016;28;1184;-69
2023/01/16 14:10:40;;;;;;;;;;;;;;;;;;5031941;28;682;-69
2023/01/16 14:13:23;;;;;;;;;;;;;;;;;;5030723;28;1211;-69
2023/01/16 14:18:36;;;;;;;;;;;;;;;;;;5032241;28;643;-68
2023/01/16 14:21:03;;;;;;;;;;;;;;;;;;5031744;28;1016;-68
2023/01/16 14:26:23;;;;;;;;;;;;;;;;;;5032518;28;612;-68
2023/01/16 14:28:51;;;;;;;;;;;;;;;;;;5030630;28;1327;-68
2023/01/16 14:31:22;;;;;;;;;;;;;;;;;;5030321;28;1323;-68
2023/01/16 14:33:48;;;;;;;;;;;;;;;;;;5030404;28;856;-67
2023/01/16 14:36:14;;;;;;;;;;;;;;;;;;5033688;28;921;-71
2023/01/16 14:38:44;;;;;;;;;;;;;;;;;;5035025;28;1033;-67
2023/01/16 14:55:26;;;;;;;;;;;;;;;;;;5031398;28;931;-67
2023/01/16 14:57:53;;;;;;;;;;;;;;;;;;5034724;28;830;-67
2023/01/16 15:00:19;;;;;;;;;;;;;;;;;;5034853;28;1038;-67
2023/01/16 15:03:03;;;;;;;;;;;;;;;;;;5033204;28;1933;-67
2023/01/16 15:05:49;;;;;;;;;;;;;;;;;;5033240;28;1068;-68
2023/01/16 15:08:16;;;;;;;;;;;;;;;;;;5033373;28;1361;-67
2023/01/16 15:10:44;;;;;;;;;;;;;;;;;;5032988;28;1215;-66
2023/01/16 15:13:17;;;;;;;;;;;;;;;;;;5034528;28;936;-66
2023/01/16 15:15:46;;;;;;;;;;;;;;;;;;5033571;28;1228;-67
2023/01/16 15:23:42;;;;;;;;;;;;;;;;;;5034790;28;1993;-68
2023/01/16 15:26:11;;;;;;;;;;;;;;;;;;5034615;28;975;-68
2023/01/16 15:28:59;;;;;;;;;;;;;;;;;;5033812;28;1097;-68
2023/01/16 15:31:40;;;;;;;;;;;;;;;;;;5034924;28;861;-68
2023/01/16 15:34:05;;;;;;;;;;;;;;;;;;5033072;28;1235;-67
2023/01/16 15:36:37;;;;;;;;;;;;;;;;;;5033222;28;1200;-68
2023/01/16 15:39:22;;;;;;;;;;;;;;;;;;5034715;28;1204;-69
2023/01/16 15:47:35;;;;;;;;;;;;;;;;;;5034056;28;699;-67
2023/01/16 15:50:19;;;;;;;;;;;;;;;;;;5033010;28;1315;-68
2023/01/16 15:52:44;;;;;;;;;;;;;;;;;;5032707;28;1287;-68
2023/01/16 15:55:11;;;;;;;;;;;;;;;;;;5033914;28;897;-68
2023/01/16 15:57:37;;;;;;;;;;;;;;;;;;5032874;28;1350;-68
2023/01/16 16:00:04;;;;;;;;;;;;;;;;;;5032751;28;1251;-67
2023/01/16 16:02:31;;;;;;;;;;;;;;;;;;5033775;28;1980;-68
2023/01/16 16:05:00;;;;;;;;;;;;;;;;;;5033663;28;867;-68
2023/01/16 16:07:26;;;;;;;;;;;;;;;;;;5033131;28;1429;-67
2023/01/16 16:09:53;;;;;;;;;;;;;;;;;;5033633;28;888;-69
2023/01/16 16:12:19;;;;;;;;;;;;;;;;;;5033962;28;963;-68
2023/01/16 16:20:29;;;;;;;;;;;;;;;;;;5033887;28;994;-67
2023/01/16 16:23:01;;;;;;;;;;;;;;;;;;5032722;28;1914;-67
2023/01/16 16:25:30;;;;;;;;;;;;;;;;;;5032153;28;1258;-68
2023/01/16 16:27:55;;;;;;;;;;;;;;;;;;5032908;28;1299;-67
2023/01/16 16:30:25;;;;;;;;;;;;;;;;;;5033388;28;1472;-67
2023/01/16 16:32:52;;;;;;;;;;;;;;;;;;5032919;28;1191;-70
2023/01/16 16:35:20;;;;;;;;;;;;;;;;;;5031892;28;1211;-70
2023/01/16 16:37:45;;;;;;;;;;;;;;;;;;5032079;28;1298;-70
2023/01/16 16:40:15;;;;;;;;;;;;;;;;;;5032832;28;853;-69
2023/01/16 16:42:43;;;;;;;;;;;;;;;;;;5031077;28;1965;-69
2023/01/16 16:45:14;;;;;;;;;;;;;;;;;;5032276;28;978;-69
2023/01/16 16:47:41;;;;;;;;;;;;;;;;;;5031698;28;1271;-70
2023/01/16 16:50:27;;;;;;;;;;;;;;;;;;5032045;28;631;-69
2023/01/16 16:52:53;;;;;;;;;;;;;;;;;;5031934;28;869;-69
2023/01/16 16:55:24;;;;;;;;;;;;;;;;;;5032236;28;935;-70
2023/01/16 16:57:51;;;;;;;;;;;;;;;;;;5030127;28;1199;-70
2023/01/16 17:00:17;;;;;;;;;;;;;;;;;;5031416;28;1393;-70
2023/01/16 17:02:45;;;;;;;;;;;;;;;;;;5030847;28;1964;-70
2023/01/16 17:05:13;;;;;;;;;;;;;;;;;;5032906;28;904;-70
2023/01/16 17:07:39;;;;;;;;;;;;;;;;;;5030589;28;1350;-70
2023/01/16 17:10:11;;;;;;;;;;;;;;;;;;5031996;28;829;-70
2023/01/16 17:12:38;;;;;;;;;;;;;;;;;;5032296;28;912;-70
2023/01/16 17:15:04;;;;;;;;;;;;;;;;;;5031442;28;893;-70
2023/01/16 17:17:29;;;;;;;;;;;;;;;;;;5032743;28;860;-70
2023/01/16 17:19:54;;;;;;;;;;;;;;;;;;5030750;28;1533;-70
2023/01/16 17:22:20;;;;;;;;;;;;;;;;;;5030582;28;1953;-70
2023/01/16 17:24:47;;;;;;;;;;;;;;;;;;5013902;28;1216;-69
2023/01/16 17:27:13;;;;;;;;;;;;;;;;;;5031076;28;1420;-69
2023/01/16 17:29:44;;;;;;;;;;;;;;;;;;5031466;28;932;-70
2023/01/16 17:32:25;;;;;;;;;;;;;;;;;;5030512;28;959;-70
2023/01/16 17:34:51;;;;;;;;;;;;;;;;;;5032458;28;873;-69
2023/01/16 17:37:16;;;;;;;;;;;;;;;;;;5014450;28;1308;-70
2023/01/16 17:39:41;;;;;;;;;;;;;;;;;;5013387;28;1354;-69
2023/01/16 17:47:22;;;;;;;;;;;;;;;;;;5031894;28;651;-70
2023/01/16 17:52:31;;;;;;;;;;;;;;;;;;5031414;28;874;-70
2023/01/16 17:57:41;;;;;;;;;;;;;;;;;;5032793;28;663;-70
2023/01/16 18:00:11;;;;;;;;;;;;;;;;;;5030638;28;897;-70
2023/01/16 18:02:37;;;;;;;;;;;;;;;;;;5030635;28;1903;-70
2023/01/16 18:05:03;;;;;;;;;;;;;;;;;;5030162;28;1267;-69
2023/01/16 18:07:28;;;;;;;;;;;;;;;;;;5032019;28;918;-69
2023/01/16 18:09:54;;;;;;;;;;;;;;;;;;5032124;28;1481;-69
2023/01/16 18:17:50;;;;;;;;;;;;;;;;;;5036209;28;687;-71
2023/01/16 18:20:16;;;;;;;;;;;;;;;;;;5034635;28;966;-66
2023/01/16 18:22:41;;;;;;;;;;;;;;;;;;5034789;28;1969;-66
2023/01/16 18:25:07;;;;;;;;;;;;;;;;;;5034959;28;825;-66
2023/01/16 18:27:33;;;;;;;;;;;;;;;;;;5033401;28;1156;-66
2023/01/16 18:30:00;;;;;;;;;;;;;;;;;;5034062;28;861;-66
2023/01/16 18:32:26;;;;;;;;;;;;;;;;;;5033851;28;1687;-66
2023/01/16 18:34:53;;;;;;;;;;;;;;;;;;5033144;28;1485;-66
2023/01/16 18:37:19;;;;;;;;;;;;;;;;;;5034934;28;1058;-66
2023/01/16 19:01:54;;;;;;;;;;;;;;;;;;5033289;28;1957;-67
2023/01/16 19:02:10;;;;;;;;;;;;;;;;;;5033091;28;1962;-66
2023/01/16 19:04:36;;;;;;;;;;;;;;;;;;5033745;28;877;-66
2023/01/16 19:07:04;;;;;;;;;;;;;;;;;;5032764;28;900;-66
2023/01/16 19:09:30;;;;;;;;;;;;;;;;;;5032514;28;1342;-66
2023/01/16 19:11:56;;;;;;;;;;;;;;;;;;5034412;28;892;-66
2023/01/16 19:14:23;;;;;;;;;;;;;;;;;;5034266;28;833;-66
2023/01/16 19:16:53;;;;;;;;;;;;;;;;;;5033330;28;1251;-66
2023/01/16 19:19:19;;;;;;;;;;;;;;;;;;5032440;28;1340;-66
2023/01/16 19:21:44;;;;;;;;;;;;;;;;;;5032132;28;1959;-66
2023/01/16 19:24:11;;;;;;;;;;;;;;;;;;5034785;28;904;-66
2023/01/16 19:26:41;;;;;;;;;;;;;;;;;;5032657;28;1211;-66
2023/01/16 19:29:06;;;;;;;;;;;;;;;;;;5032991;28;1318;-66
2023/01/16 19:31:31;;;;;;;;;;;;;;;;;;5016319;28;1322;-66